createdAt,value
2023-09-23T00:01:04.972Z,10.0
2023-09-23T00:04:05.382Z,9.9
2023-09-23T00:07:04.890Z,10.0
2023-09-23T00:10:04.916Z,9.9
2023-09-23T00:13:04.915Z,9.9
2023-09-23T00:16:04.990Z,9.9
2023-09-23T00:19:05.184Z,9.7
2023-09-23T00:22:04.818Z,9.6
2023-09-23T00:25:04.925Z,9.7
2023-09-23T00:28:04.899Z,9.6
2023-09-23T00:31:05.102Z,9.6
2023-09-23T00:34:05.021Z,9.6
2023-09-23T00:37:04.999Z,9.5
2023-09-23T00:40:04.823Z,9.5
2023-09-23T00:43:05.030Z,9.7
2023-09-23T00:46:05.000Z,9.6
2023-09-23T00:49:05.017Z,9.6
2023-09-23T00:52:04.809Z,9.7
2023-09-23T00:55:04.786Z,9.7
2023-09-23T00:58:06.336Z,9.8
2023-09-23T01:01:05.036Z,9.7
2023-09-23T01:04:06.017Z,9.7
2023-09-23T01:07:04.831Z,9.7
2023-09-23T01:10:05.001Z,9.7
2023-09-23T01:13:04.862Z,9.6
2023-09-23T01:16:05.119Z,9.6
2023-09-23T01:19:05.323Z,9.7
2023-09-23T01:22:04.826Z,9.7
2023-09-23T01:25:04.888Z,9.8
2023-09-23T01:28:04.855Z,9.8
2023-09-23T01:31:04.963Z,9.8
2023-09-23T01:34:05.109Z,9.9
2023-09-23T01:37:04.866Z,9.9
2023-09-23T01:40:04.912Z,10.7
2023-09-23T01:43:05.025Z,10.3
2023-09-23T01:46:05.075Z,10.1
2023-09-23T01:49:04.952Z,10.0
2023-09-23T01:52:04.860Z,9.9
2023-09-23T01:55:04.946Z,10.0
2023-09-23T01:58:05.299Z,10.0
2023-09-23T02:01:05.437Z,9.9
2023-09-23T02:04:05.305Z,10.0
2023-09-23T02:07:04.907Z,10.4
2023-09-23T02:10:04.880Z,10.1
2023-09-23T02:13:04.922Z,10.1
2023-09-23T02:16:04.843Z,10.1
2023-09-23T02:19:05.019Z,10.1
2023-09-23T02:22:04.839Z,10.1
2023-09-23T02:25:04.925Z,10.1
2023-09-23T02:28:04.978Z,10.1
2023-09-23T02:31:05.134Z,10.0
2023-09-23T02:34:04.949Z,10.1
2023-09-23T02:37:04.927Z,10.0
2023-09-23T02:40:04.847Z,10.0
2023-09-23T02:43:04.912Z,10.0
2023-09-23T02:46:05.057Z,9.9
2023-09-23T02:49:05.105Z,9.8
2023-09-23T02:52:04.989Z,9.9
2023-09-23T02:55:05.118Z,9.9
2023-09-23T02:58:05.382Z,10.0
2023-09-23T03:01:05.105Z,10.0
2023-09-23T03:04:05.516Z,10.0
2023-09-23T03:07:05.088Z,10.0
2023-09-23T03:10:05.171Z,10.0
2023-09-23T03:13:04.980Z,10.1
2023-09-23T03:16:04.912Z,10.1
2023-09-23T03:19:05.660Z,10.1
2023-09-23T03:22:04.874Z,10.1
2023-09-23T03:25:04.945Z,10.1
2023-09-23T03:28:05.093Z,10.1
2023-09-23T03:31:07.388Z,10.0
2023-09-23T03:34:04.984Z,10.1
2023-09-23T03:37:10.047Z,10.1
2023-09-23T03:40:04.807Z,10.1
2023-09-23T03:43:04.957Z,10.1
2023-09-23T03:46:05.089Z,10.1
2023-09-23T03:49:05.267Z,10.1
2023-09-23T03:52:05.074Z,10.1
2023-09-23T03:55:04.837Z,10.1
2023-09-23T03:58:04.858Z,10.1
2023-09-23T04:01:05.015Z,10.1
2023-09-23T04:04:05.011Z,10.0
2023-09-23T04:07:04.889Z,10.1
2023-09-23T04:10:04.985Z,10.1
2023-09-23T04:13:05.034Z,10.0
2023-09-23T04:16:04.942Z,9.9
2023-09-23T04:19:05.337Z,10.0
2023-09-23T04:22:04.907Z,10.0
2023-09-23T04:25:04.889Z,10.0
2023-09-23T04:28:05.028Z,10.0
2023-09-23T04:31:05.067Z,10.0
2023-09-23T04:34:05.120Z,10.0
2023-09-23T04:37:04.896Z,10.0
2023-09-23T04:40:04.928Z,10.0
2023-09-23T04:43:04.842Z,10.1
2023-09-23T04:46:05.002Z,10.1
2023-09-23T04:49:05.165Z,10.0
2023-09-23T04:52:05.015Z,10.0
2023-09-23T04:55:04.858Z,10.1
2023-09-23T04:58:04.809Z,10.0
2023-09-23T05:01:05.196Z,10.1
2023-09-23T05:04:04.956Z,10.0
2023-09-23T05:07:04.908Z,10.0
2023-09-23T05:10:04.859Z,10.1
2023-09-23T05:13:05.094Z,10.0
2023-09-23T05:16:05.725Z,10.0
2023-09-23T05:19:05.440Z,10.0
2023-09-23T05:22:04.876Z,10.0
2023-09-23T05:25:05.253Z,10.0
2023-09-23T05:28:04.866Z,10.1
2023-09-23T05:31:05.064Z,10.2
2023-09-23T05:34:04.909Z,10.3
2023-09-23T05:37:04.907Z,10.0
2023-09-23T05:40:04.868Z,10.0
2023-09-23T05:43:05.006Z,10.0
2023-09-23T05:46:04.856Z,10.0
2023-09-23T05:49:05.120Z,9.9
2023-09-23T05:52:04.853Z,10.0
2023-09-23T05:55:04.974Z,10.0
2023-09-23T05:58:04.868Z,10.1
2023-09-23T06:01:05.454Z,10.0
2023-09-23T06:04:05.563Z,10.1
2023-09-23T06:07:04.997Z,10.1
2023-09-23T06:10:04.921Z,10.2
2023-09-23T06:13:04.893Z,10.1
2023-09-23T06:16:05.092Z,10.1
2023-09-23T06:19:05.168Z,10.1
2023-09-23T06:22:04.920Z,10.2
2023-09-23T06:25:04.967Z,10.2
2023-09-23T06:28:04.897Z,10.1
2023-09-23T06:31:05.401Z,10.1
2023-09-23T06:34:04.978Z,10.2
2023-09-23T06:37:04.837Z,10.2
2023-09-23T06:40:04.913Z,10.2
2023-09-23T06:43:04.821Z,10.2
2023-09-23T06:46:04.947Z,10.2
2023-09-23T06:49:04.968Z,10.2
2023-09-23T06:52:04.943Z,10.3
2023-09-23T06:55:05.123Z,10.3
2023-09-23T06:58:04.874Z,10.3
2023-09-23T07:01:05.021Z,10.3
2023-09-23T07:04:05.550Z,10.2
2023-09-23T07:07:04.889Z,10.1
2023-09-23T07:10:04.969Z,10.2
2023-09-23T07:13:04.952Z,10.2
2023-09-23T07:16:04.937Z,10.2
2023-09-23T07:19:08.358Z,10.3
2023-09-23T07:22:04.929Z,10.2
2023-09-23T07:25:04.945Z,10.2
2023-09-23T07:28:04.949Z,10.2
2023-09-23T07:31:07.206Z,10.3
2023-09-23T07:34:05.282Z,10.3
2023-09-23T07:37:04.941Z,10.4
2023-09-23T07:40:04.766Z,10.4
2023-09-23T07:43:04.770Z,10.4
2023-09-23T07:46:04.882Z,10.5
2023-09-23T07:52:04.754Z,10.7
2023-09-23T07:55:04.788Z,10.3
2023-09-23T07:58:04.789Z,10.2
2023-09-23T08:01:04.826Z,10.2
2023-09-23T08:04:05.353Z,10.2
2023-09-23T08:07:04.780Z,10.2
2023-09-23T08:10:04.840Z,10.2
2023-09-23T08:13:04.783Z,10.1
2023-09-23T08:16:04.878Z,10.2
2023-09-23T08:19:04.856Z,10.3
2023-09-23T08:22:04.750Z,10.3
2023-09-23T08:25:04.776Z,10.3
2023-09-23T08:28:04.811Z,10.4
2023-09-23T08:31:04.762Z,10.5
2023-09-23T08:34:05.573Z,10.5
2023-09-23T08:37:04.793Z,10.5
2023-09-23T08:40:04.791Z,10.4
2023-09-23T08:43:04.832Z,10.3
2023-09-23T08:46:05.022Z,10.3
2023-09-23T08:49:05.268Z,10.4
2023-09-23T08:52:04.732Z,10.5
2023-09-23T08:55:04.769Z,10.5
2023-09-23T08:58:04.844Z,10.7
2023-09-23T09:01:04.916Z,10.7
2023-09-23T09:04:04.929Z,10.7
2023-09-23T09:07:05.035Z,10.8
2023-09-23T09:10:05.015Z,10.9
2023-09-23T09:13:04.908Z,11.0
2023-09-23T09:16:04.880Z,11.1
2023-09-23T09:19:04.859Z,11.2
2023-09-23T09:22:04.799Z,11.1
2023-09-23T09:25:04.798Z,11.2
2023-09-23T09:28:04.793Z,11.1
2023-09-23T09:31:17.119Z,11.0
2023-09-23T09:34:05.029Z,11.0
2023-09-23T09:37:04.831Z,11.0
2023-09-23T09:40:04.828Z,11.0
2023-09-23T09:43:05.636Z,11.2
2023-09-23T09:46:04.779Z,11.3
2023-09-23T09:49:05.301Z,11.4
2023-09-23T09:52:04.768Z,11.3
2023-09-23T09:55:04.767Z,11.2
2023-09-23T09:58:04.950Z,11.2
2023-09-23T10:01:05.309Z,11.2
2023-09-23T10:04:05.592Z,11.3
2023-09-23T10:07:04.830Z,11.4
2023-09-23T10:10:04.928Z,11.5
2023-09-23T10:13:04.949Z,11.4
2023-09-23T10:16:04.865Z,11.3
2023-09-23T10:19:05.799Z,11.4
2023-09-23T10:22:04.837Z,11.6
2023-09-23T10:25:04.991Z,11.7
2023-09-23T10:28:04.832Z,11.5
2023-09-23T10:31:05.095Z,11.5
2023-09-23T10:34:05.033Z,11.7
2023-09-23T10:37:04.923Z,11.9
2023-09-23T10:40:04.910Z,11.8
2023-09-23T10:43:05.041Z,11.6
2023-09-23T10:46:04.928Z,11.8
2023-09-23T10:49:05.452Z,11.7
2023-09-23T10:52:04.917Z,11.9
2023-09-23T10:55:05.132Z,11.8
2023-09-23T10:58:04.911Z,11.9
2023-09-23T11:01:05.009Z,11.9
2023-09-23T11:04:05.914Z,12.0
2023-09-23T11:07:04.853Z,12.0
2023-09-23T11:10:04.939Z,12.0
2023-09-23T11:13:04.953Z,12.0
2023-09-23T11:16:04.964Z,12.0
2023-09-23T11:19:05.624Z,12.1
2023-09-23T11:22:04.871Z,12.2
2023-09-23T11:25:04.928Z,12.4
2023-09-23T11:28:04.942Z,12.4
2023-09-23T11:31:04.955Z,12.3
2023-09-23T11:34:04.974Z,12.3
2023-09-23T11:37:04.868Z,12.3
2023-09-23T11:40:05.049Z,12.3
2023-09-23T11:43:04.890Z,12.3
2023-09-23T11:46:04.994Z,12.2
2023-09-23T11:49:05.120Z,12.3
2023-09-23T11:52:05.088Z,12.1
2023-09-23T11:55:05.054Z,12.3
2023-09-23T11:58:04.926Z,12.2
2023-09-23T12:01:05.043Z,12.2
2023-09-23T12:04:05.532Z,12.4
2023-09-23T12:07:04.929Z,12.4
2023-09-23T12:10:04.902Z,12.6
2023-09-23T12:13:05.398Z,12.6
2023-09-23T12:16:05.408Z,12.5
2023-09-23T12:19:05.344Z,12.5
2023-09-23T12:22:04.876Z,12.6
2023-09-23T12:25:05.089Z,12.4
2023-09-23T12:28:04.941Z,12.2
2023-09-23T12:31:04.980Z,12.4
2023-09-23T12:34:05.114Z,12.7
2023-09-23T12:37:04.910Z,12.4
2023-09-23T12:40:04.939Z,12.6
2023-09-23T12:43:04.888Z,12.5
2023-09-23T12:46:07.524Z,12.6
2023-09-23T12:49:05.491Z,12.7
2023-09-23T12:52:04.865Z,12.9
2023-09-23T12:55:04.945Z,13.0
2023-09-23T12:58:04.820Z,12.7
2023-09-23T13:01:06.321Z,12.7
2023-09-23T13:04:05.706Z,12.8
2023-09-23T13:07:04.982Z,12.5
2023-09-23T13:10:04.893Z,12.2
2023-09-23T13:13:04.927Z,12.4
2023-09-23T13:16:05.243Z,12.5
2023-09-23T13:19:05.460Z,12.6
2023-09-23T13:22:04.918Z,12.6
2023-09-23T13:25:05.005Z,12.5
2023-09-23T13:28:04.864Z,12.6
2023-09-23T13:31:05.027Z,12.7
2023-09-23T13:34:07.115Z,12.7
2023-09-23T13:37:05.283Z,12.8
2023-09-23T13:40:04.885Z,12.9
2023-09-23T13:43:04.925Z,12.8
2023-09-23T13:46:04.991Z,12.6
2023-09-23T13:49:05.580Z,12.6
2023-09-23T13:52:04.927Z,12.5
2023-09-23T13:55:04.816Z,12.5
2023-09-23T13:58:04.883Z,12.6
2023-09-23T14:01:05.172Z,12.7
2023-09-23T14:04:05.159Z,12.4
2023-09-23T14:07:04.880Z,12.3
2023-09-23T14:10:19.213Z,12.2
2023-09-23T14:13:04.917Z,12.2
2023-09-23T14:16:04.956Z,12.3
2023-09-23T14:19:05.543Z,12.3
2023-09-23T14:22:04.871Z,12.0
2023-09-23T14:25:05.046Z,12.2
2023-09-23T14:28:04.853Z,12.1
2023-09-23T14:31:05.168Z,12.1
2023-09-23T14:34:05.125Z,12.2
2023-09-23T14:37:05.049Z,12.2
2023-09-23T14:40:04.904Z,12.2
2023-09-23T14:43:04.919Z,12.3
2023-09-23T14:46:05.422Z,12.4
2023-09-23T14:49:05.413Z,12.3
2023-09-23T14:52:04.888Z,12.3
2023-09-23T14:55:06.310Z,12.3
2023-09-23T14:58:04.902Z,12.3
2023-09-23T15:01:06.742Z,12.4
2023-09-23T15:04:06.006Z,12.4
2023-09-23T15:07:04.983Z,12.5
2023-09-23T15:10:06.255Z,12.6
2023-09-23T15:13:04.953Z,12.8
2023-09-23T15:16:04.950Z,12.8
2023-09-23T15:19:05.391Z,12.8
2023-09-23T15:22:04.893Z,12.6
2023-09-23T15:25:04.899Z,12.6
2023-09-23T15:28:04.887Z,12.6
2023-09-23T15:31:05.164Z,12.4
2023-09-23T15:34:05.434Z,12.3
2023-09-23T15:37:04.875Z,12.4
2023-09-23T15:40:07.355Z,12.4
2023-09-23T15:43:04.894Z,12.3
2023-09-23T15:46:05.044Z,12.6
2023-09-23T15:49:05.353Z,12.7
2023-09-23T15:52:05.029Z,12.6
2023-09-23T15:55:04.892Z,12.9
2023-09-23T15:58:04.934Z,13.0
2023-09-23T16:01:05.057Z,13.1
2023-09-23T16:04:07.156Z,13.0
2023-09-23T16:07:04.919Z,13.0
2023-09-23T16:10:04.856Z,12.7
2023-09-23T16:13:04.924Z,12.5
2023-09-23T16:16:05.608Z,12.5
2023-09-23T16:19:06.690Z,12.5
2023-09-23T16:22:05.170Z,12.6
2023-09-23T16:25:05.278Z,12.9
2023-09-23T16:28:04.896Z,13.0
2023-09-23T16:31:05.416Z,12.6
2023-09-23T16:34:05.192Z,12.5
2023-09-23T16:37:05.130Z,12.3
2023-09-23T16:40:04.912Z,12.4
2023-09-23T16:43:05.115Z,12.4
2023-09-23T16:46:05.145Z,12.8
2023-09-23T16:49:05.664Z,13.1
2023-09-23T16:52:05.038Z,13.4
2023-09-23T16:55:05.114Z,13.4
2023-09-23T16:58:04.994Z,12.9
2023-09-23T17:01:05.316Z,12.8
2023-09-23T17:04:05.748Z,12.7
2023-09-23T17:07:05.146Z,12.7
2023-09-23T17:10:05.052Z,12.8
2023-09-23T17:13:05.141Z,12.8
2023-09-23T17:16:05.044Z,12.8
2023-09-23T17:19:05.830Z,12.8
2023-09-23T17:22:05.083Z,13.0
2023-09-23T17:25:05.067Z,13.1
2023-09-23T17:28:04.972Z,13.3
2023-09-23T17:31:05.294Z,13.4
2023-09-23T17:34:05.501Z,13.5
2023-09-23T17:37:04.961Z,13.4
2023-09-23T17:40:04.944Z,13.4
2023-09-23T17:43:05.111Z,13.3
2023-09-23T17:46:05.231Z,13.3
2023-09-23T17:49:05.330Z,13.4
2023-09-23T17:52:04.983Z,13.4
2023-09-23T17:55:05.050Z,13.4
2023-09-23T17:58:06.945Z,13.3
2023-09-23T18:01:05.696Z,13.2
2023-09-23T18:04:07.066Z,13.2
2023-09-23T18:07:05.036Z,13.3
2023-09-23T18:10:05.009Z,13.6
2023-09-23T18:13:05.196Z,13.6
2023-09-23T18:16:05.078Z,13.6
2023-09-23T18:19:05.496Z,13.6
2023-09-23T18:22:05.013Z,13.6
2023-09-23T18:25:05.537Z,13.5
2023-09-23T18:28:06.995Z,13.4
2023-09-23T18:31:05.574Z,13.3
2023-09-23T18:34:05.795Z,13.1
2023-09-23T18:37:05.424Z,13.0
2023-09-23T18:40:05.077Z,12.9
2023-09-23T18:43:05.104Z,12.8
2023-09-23T18:46:05.293Z,12.8
2023-09-23T18:49:19.316Z,12.7
2023-09-23T18:52:05.114Z,12.7
2023-09-23T18:55:05.195Z,12.7
2023-09-23T18:58:05.124Z,12.7
2023-09-23T19:01:05.474Z,12.7
2023-09-23T19:04:06.112Z,12.5
2023-09-23T19:07:05.833Z,12.5
2023-09-23T19:10:05.037Z,12.4
2023-09-23T19:13:04.919Z,12.1
2023-09-23T19:16:05.288Z,11.8
2023-09-23T19:19:05.473Z,12.0
2023-09-23T19:22:04.993Z,11.6
2023-09-23T19:25:05.006Z,11.5
2023-09-23T19:28:05.092Z,11.5
2023-09-23T19:31:05.057Z,11.6
2023-09-23T19:34:05.571Z,11.7
2023-09-23T19:37:05.572Z,11.8
2023-09-23T19:40:04.918Z,11.9
2023-09-23T19:43:04.969Z,12.0
2023-09-23T19:46:05.463Z,11.9
2023-09-23T19:49:05.877Z,11.8
2023-09-23T19:52:04.944Z,11.6
2023-09-23T19:55:04.867Z,11.5
2023-09-23T19:58:04.912Z,11.3
2023-09-23T20:01:05.229Z,11.2
2023-09-23T20:04:05.601Z,11.0
2023-09-23T20:07:04.967Z,10.9
2023-09-23T20:10:05.091Z,11.0
2023-09-23T20:13:05.036Z,11.1
2023-09-23T20:16:04.978Z,10.9
2023-09-23T20:19:05.360Z,11.0
2023-09-23T20:22:04.932Z,10.9
2023-09-23T20:25:04.977Z,10.9
2023-09-23T20:28:05.115Z,10.9
2023-09-23T20:31:12.818Z,10.9
2023-09-23T20:34:05.517Z,10.9
2023-09-23T20:37:05.050Z,10.8
2023-09-23T20:40:07.286Z,10.9
2023-09-23T20:43:04.953Z,10.8
2023-09-23T20:46:04.875Z,10.8
2023-09-23T20:49:05.124Z,10.9
2023-09-23T20:52:04.973Z,10.8
2023-09-23T20:55:04.981Z,10.8
2023-09-23T20:58:04.877Z,10.8
2023-09-23T21:01:04.960Z,10.7
2023-09-23T21:04:06.848Z,10.7
2023-09-23T21:07:04.929Z,10.7
2023-09-23T21:10:05.066Z,10.7
2023-09-23T21:13:04.931Z,10.7
2023-09-23T21:16:05.038Z,10.6
2023-09-23T21:19:05.250Z,10.6
2023-09-23T21:22:04.899Z,10.6
2023-09-23T21:25:05.009Z,10.5
2023-09-23T21:28:04.831Z,10.5
2023-09-23T21:31:05.035Z,10.5
2023-09-23T21:34:05.823Z,10.5
2023-09-23T21:37:04.999Z,10.3
2023-09-23T21:40:04.827Z,10.4
2023-09-23T21:43:04.858Z,10.4
2023-09-23T21:46:05.064Z,10.3
2023-09-23T21:49:05.149Z,10.3
2023-09-23T21:52:04.849Z,10.2
2023-09-23T21:55:04.989Z,10.2
2023-09-23T21:58:08.466Z,10.2
2023-09-23T22:01:05.110Z,10.2
2023-09-23T22:04:06.482Z,10.3
2023-09-23T22:07:04.993Z,10.3
2023-09-23T22:10:04.843Z,10.3
2023-09-23T22:13:04.826Z,10.3
2023-09-23T22:16:04.936Z,10.2
2023-09-23T22:19:05.219Z,10.2
2023-09-23T22:22:04.910Z,10.2
2023-09-23T22:25:04.998Z,10.2
2023-09-23T22:28:04.941Z,10.2
2023-09-23T22:31:05.055Z,10.2
2023-09-23T22:34:05.725Z,10.1
2023-09-23T22:37:04.936Z,10.1
2023-09-23T22:40:14.777Z,10.0
2023-09-23T22:43:04.794Z,9.9
2023-09-23T22:46:15.089Z,9.9
2023-09-23T22:49:05.286Z,10.0
2023-09-23T22:52:04.877Z,9.9
2023-09-23T22:55:05.012Z,9.9
2023-09-23T22:58:04.856Z,9.9
2023-09-23T23:01:05.864Z,9.9
2023-09-23T23:04:05.649Z,9.8
2023-09-23T23:07:07.611Z,9.7
2023-09-23T23:10:05.130Z,9.7
2023-09-23T23:13:07.065Z,9.7
2023-09-23T23:16:05.108Z,9.6
2023-09-23T23:19:05.223Z,9.6
2023-09-23T23:22:05.119Z,9.6
2023-09-23T23:25:05.094Z,9.6
2023-09-23T23:28:04.923Z,9.5
2023-09-23T23:31:05.878Z,9.4
2023-09-23T23:34:05.582Z,9.4
2023-09-23T23:37:05.082Z,9.4
2023-09-23T23:40:05.048Z,9.3
2023-09-23T23:43:04.880Z,9.3
2023-09-23T23:46:05.180Z,9.2
2023-09-23T23:49:05.863Z,9.3
2023-09-23T23:52:05.107Z,9.4
2023-09-23T23:55:05.389Z,9.3
2023-09-23T23:58:05.245Z,9.2
